createdAt,value
2023-01-28T00:02:27.690Z,82.08
2023-01-28T00:04:55.402Z,82.35
2023-01-28T00:07:42.150Z,82.44
2023-01-28T00:10:10.676Z,82.92
2023-01-28T00:12:38.391Z,82.28
2023-01-28T00:15:07.030Z,82.30
2023-01-28T00:17:34.756Z,82.23
2023-01-28T00:20:02.317Z,83.25
2023-01-28T00:22:31.732Z,82.77
2023-01-28T00:24:59.552Z,82.58
2023-01-28T00:27:27.164Z,83.08
2023-01-28T00:29:55.486Z,82.76
2023-01-28T00:32:25.427Z,82.61
2023-01-28T00:34:52.991Z,83.57
2023-01-28T00:37:20.536Z,83.76
2023-01-28T00:39:50.873Z,83.37
2023-01-28T00:42:18.713Z,83.06
2023-01-28T00:44:46.412Z,83.42
2023-01-28T00:47:14.072Z,82.66
2023-01-28T00:49:41.718Z,83.28
2023-01-28T00:52:09.285Z,83.19
2023-01-28T00:54:37.435Z,82.30
2023-01-28T00:57:07.070Z,82.83
2023-01-28T00:59:34.684Z,82.73
2023-01-28T01:02:12.440Z,82.40
2023-01-28T01:04:40.481Z,83.10
2023-01-28T01:07:08.165Z,83.44
2023-01-28T01:09:35.766Z,82.68
2023-01-28T01:12:03.479Z,82.41
2023-01-28T01:14:34.284Z,82.45
2023-01-28T01:17:01.891Z,82.68
2023-01-28T01:19:29.885Z,82.64
2023-01-28T01:21:57.833Z,82.80
2023-01-28T01:24:29.669Z,82.86
2023-01-28T01:26:57.239Z,82.78
2023-01-28T01:29:24.837Z,82.73
2023-01-28T01:31:55.409Z,82.69
2023-01-28T01:34:23.190Z,83.37
2023-01-28T01:36:50.838Z,83.24
2023-01-28T01:39:18.404Z,83.10
2023-01-28T01:41:45.997Z,83.16
2023-01-28T01:44:48.280Z,83.23
2023-01-28T01:47:17.980Z,82.91
2023-01-28T01:49:45.881Z,83.10
2023-01-28T01:52:15.626Z,82.75
2023-01-28T01:54:44.386Z,82.87
2023-01-28T01:57:15.977Z,82.72
2023-01-28T01:59:45.063Z,82.73
2023-01-28T02:02:12.874Z,82.77
2023-01-28T02:04:44.447Z,82.63
2023-01-28T02:07:14.286Z,82.94
2023-01-28T02:09:41.905Z,83.20
2023-01-28T02:12:12.382Z,83.38
2023-01-28T02:14:43.644Z,83.37
2023-01-28T02:17:11.404Z,82.95
2023-01-28T02:19:44.025Z,83.44
2023-01-28T02:22:51.281Z,83.40
2023-01-28T02:25:57.931Z,83.81
2023-01-28T02:28:33.720Z,83.58
2023-01-28T02:31:06.137Z,84.01
2023-01-28T02:33:36.851Z,83.62
2023-01-28T02:36:12.549Z,84.02
2023-01-28T02:38:43.520Z,83.72
2023-01-28T02:41:15.810Z,84.08
2023-01-28T02:43:46.993Z,84.13
2023-01-28T02:46:38.295Z,84.36
2023-01-28T02:49:09.596Z,84.49
2023-01-28T02:51:57.619Z,84.03
2023-01-28T02:54:33.353Z,83.79
2023-01-28T02:57:10.301Z,84.17
2023-01-28T02:59:43.511Z,84.10
2023-01-28T03:02:15.343Z,84.56
2023-01-28T03:04:46.735Z,84.59
2023-01-28T03:07:16.049Z,84.58
2023-01-28T03:09:44.094Z,84.94
2023-01-28T03:12:31.290Z,84.66
2023-01-28T03:15:19.840Z,85.19
2023-01-28T03:18:08.445Z,85.03
2023-01-28T03:20:57.274Z,85.08
2023-01-28T03:23:47.187Z,85.29
2023-01-28T03:26:33.971Z,85.11
2023-01-28T03:29:23.915Z,85.04
2023-01-28T03:32:10.763Z,85.24
2023-01-28T03:34:56.397Z,85.26
2023-01-28T03:37:24.058Z,84.70
2023-01-28T03:39:51.552Z,84.35
2023-01-28T03:42:19.098Z,84.56
2023-01-28T03:44:53.060Z,84.63
2023-01-28T03:47:23.436Z,84.46
2023-01-28T03:49:52.298Z,84.47
2023-01-28T03:52:22.073Z,84.63
2023-01-28T03:54:50.332Z,84.79
2023-01-28T03:57:18.560Z,84.22
2023-01-28T03:59:46.250Z,84.36
2023-01-28T04:02:13.968Z,83.80
2023-01-28T04:04:43.307Z,83.73
2023-01-28T04:07:11.911Z,83.29
2023-01-28T04:09:39.433Z,83.22
2023-01-28T04:12:07.422Z,83.22
2023-01-28T04:14:34.938Z,82.74
2023-01-28T04:17:02.432Z,82.85
2023-01-28T04:19:31.651Z,82.19
2023-01-28T04:22:00.508Z,82.52
2023-01-28T04:24:28.057Z,82.33
2023-01-28T04:26:56.539Z,83.03
2023-01-28T04:29:24.122Z,82.46
2023-01-28T04:31:51.646Z,82.03
2023-01-28T04:34:20.340Z,82.28
2023-01-28T04:36:47.822Z,81.68
2023-01-28T04:39:16.879Z,81.16
2023-01-28T04:41:44.383Z,80.81
2023-01-28T04:44:11.856Z,81.72
2023-01-28T04:46:39.520Z,81.27
2023-01-28T04:49:07.002Z,81.08
2023-01-28T04:51:34.479Z,80.83
2023-01-28T04:54:02.019Z,80.21
2023-01-28T04:56:30.871Z,80.45
2023-01-28T04:58:58.376Z,80.24
2023-01-28T05:01:26.053Z,80.34
2023-01-28T05:03:53.563Z,80.30
2023-01-28T05:06:21.294Z,80.72
2023-01-28T05:08:49.327Z,79.92
2023-01-28T05:11:16.815Z,80.20
2023-01-28T05:13:45.688Z,80.18
2023-01-28T05:16:13.177Z,80.33
2023-01-28T05:18:40.653Z,80.58
2023-01-28T05:21:08.177Z,80.71
2023-01-28T05:23:35.715Z,80.42
2023-01-28T05:26:03.233Z,80.10
2023-01-28T05:28:30.783Z,81.02
2023-01-28T05:31:04.155Z,81.31
2023-01-28T05:33:31.714Z,81.04
2023-01-28T05:35:59.328Z,80.85
2023-01-28T05:38:26.830Z,80.51
2023-01-28T05:40:54.341Z,80.30
2023-01-28T05:43:21.824Z,80.92
2023-01-28T05:45:49.583Z,80.17
2023-01-28T05:48:18.474Z,80.14
2023-01-28T05:50:47.775Z,79.91
2023-01-28T05:53:15.492Z,80.53
2023-01-28T05:55:42.996Z,80.46
2023-01-28T05:58:10.486Z,80.05
2023-01-28T06:00:38.020Z,80.51
2023-01-28T06:03:05.494Z,80.40
2023-01-28T06:05:34.406Z,80.65
2023-01-28T06:08:01.971Z,80.61
2023-01-28T06:10:30.045Z,80.40
2023-01-28T06:12:57.549Z,80.37
2023-01-28T06:15:26.341Z,79.97
2023-01-28T06:17:53.777Z,80.38
2023-01-28T06:20:21.263Z,80.43
2023-01-28T06:22:51.383Z,80.20
2023-01-28T06:25:19.031Z,80.53
2023-01-28T06:27:46.496Z,79.98
2023-01-28T06:30:14.886Z,80.08
2023-01-28T06:32:42.706Z,80.07
2023-01-28T06:35:10.606Z,80.05
2023-01-28T06:37:39.672Z,79.90
2023-01-28T06:40:10.481Z,79.74
2023-01-28T06:42:37.970Z,80.05
2023-01-28T06:45:06.268Z,79.58
2023-01-28T06:47:35.844Z,79.67
2023-01-28T06:50:03.476Z,79.73
2023-01-28T06:52:31.023Z,79.62
2023-01-28T06:54:58.631Z,79.46
2023-01-28T06:57:27.581Z,79.52
2023-01-28T06:59:55.222Z,79.47
2023-01-28T07:02:22.933Z,78.76
2023-01-28T07:04:50.569Z,79.04
2023-01-28T07:07:18.127Z,79.17
2023-01-28T07:09:45.650Z,79.26
2023-01-28T07:12:13.251Z,78.83
2023-01-28T07:14:42.382Z,78.86
2023-01-28T07:17:10.115Z,79.03
2023-01-28T07:19:38.130Z,78.53
2023-01-28T07:22:05.803Z,78.31
2023-01-28T07:24:33.774Z,78.69
2023-01-28T07:27:01.331Z,78.48
2023-01-28T07:29:28.860Z,78.63
2023-01-28T07:31:57.797Z,78.07
2023-01-28T07:34:25.587Z,78.55
2023-01-28T07:36:53.253Z,78.26
2023-01-28T07:39:20.976Z,78.06
2023-01-28T07:41:48.637Z,78.19
2023-01-28T07:44:16.217Z,78.27
2023-01-28T07:46:44.238Z,77.96
2023-01-28T07:49:13.429Z,77.41
2023-01-28T07:51:41.465Z,77.77
2023-01-28T07:54:10.141Z,77.93
2023-01-28T07:56:38.241Z,77.56
2023-01-28T07:59:05.859Z,77.52
2023-01-28T08:01:33.564Z,77.96
2023-01-28T08:04:01.380Z,77.29
2023-01-28T08:06:30.861Z,77.22
2023-01-28T08:08:58.556Z,77.15
2023-01-28T08:11:26.221Z,77.29
2023-01-28T08:13:56.545Z,77.59
2023-01-28T08:16:25.782Z,76.91
2023-01-28T08:18:53.979Z,77.60
2023-01-28T08:21:25.673Z,77.60
2023-01-28T08:23:54.996Z,77.50
2023-01-28T08:26:22.641Z,77.00
2023-01-28T08:28:51.605Z,77.13
2023-01-28T08:31:19.568Z,77.19
2023-01-28T08:33:47.299Z,77.13
2023-01-28T08:36:15.676Z,76.94
2023-01-28T08:38:43.536Z,76.86
2023-01-28T08:41:21.196Z,76.67
2023-01-28T08:43:49.279Z,77.04
2023-01-28T08:46:17.252Z,76.60
2023-01-28T08:48:45.587Z,77.13
2023-01-28T08:51:13.049Z,76.80
2023-01-28T08:53:40.572Z,76.40
2023-01-28T08:56:08.719Z,76.21
2023-01-28T08:58:37.583Z,76.79
2023-01-28T09:01:05.886Z,76.29
2023-01-28T09:03:33.626Z,76.23
2023-01-28T09:06:02.044Z,76.05
2023-01-28T09:08:29.617Z,76.21
2023-01-28T09:10:57.609Z,75.97
2023-01-28T09:13:25.557Z,75.67
2023-01-28T09:15:54.417Z,75.73
2023-01-28T09:18:21.907Z,75.51
2023-01-28T09:20:49.353Z,75.45
2023-01-28T09:23:17.047Z,74.97
2023-01-28T09:25:45.054Z,75.54
2023-01-28T09:28:12.535Z,75.46
2023-01-28T09:30:40.490Z,75.42
2023-01-28T09:33:09.388Z,75.55
2023-01-28T09:35:37.635Z,75.50
2023-01-28T09:38:05.633Z,75.32
2023-01-28T09:40:37.022Z,75.58
2023-01-28T09:43:29.828Z,75.41
2023-01-28T09:45:59.425Z,76.03
2023-01-28T09:48:32.699Z,75.77
2023-01-28T09:51:01.372Z,75.86
2023-01-28T09:53:31.734Z,76.60
2023-01-28T09:56:02.756Z,76.42
2023-01-28T09:58:30.278Z,76.19
2023-01-28T10:01:02.479Z,76.36
2023-01-28T10:03:39.452Z,75.62
2023-01-28T10:06:15.750Z,76.36
2023-01-28T10:09:19.027Z,75.87
2023-01-28T10:11:56.854Z,76.08
2023-01-28T10:14:32.622Z,76.19
2023-01-28T10:17:06.972Z,75.57
2023-01-28T10:19:39.473Z,75.37
2023-01-28T10:22:08.866Z,75.60
2023-01-28T10:24:37.581Z,76.08
2023-01-28T10:27:10.986Z,75.54
2023-01-28T10:29:40.407Z,74.86
2023-01-28T10:32:17.888Z,75.42
2023-01-28T10:34:46.930Z,74.96
2023-01-28T10:37:15.140Z,74.83
2023-01-28T10:39:43.117Z,75.32
2023-01-28T10:42:18.945Z,75.23
2023-01-28T10:44:46.583Z,74.61
2023-01-28T10:47:16.476Z,74.55
2023-01-28T10:49:49.321Z,74.73
2023-01-28T10:52:18.423Z,74.31
2023-01-28T10:54:45.905Z,74.43
2023-01-28T10:57:17.639Z,73.89
2023-01-28T10:59:45.217Z,73.38
2023-01-28T11:02:27.219Z,73.94
2023-01-28T11:05:08.452Z,73.52
2023-01-28T11:07:35.942Z,73.81
2023-01-28T11:10:03.549Z,73.42
2023-01-28T11:12:32.130Z,72.85
2023-01-28T11:15:01.096Z,72.44
2023-01-28T11:17:30.412Z,73.11
2023-01-28T11:19:59.989Z,72.82
2023-01-28T11:22:33.584Z,72.76
2023-01-28T11:25:01.631Z,72.86
2023-01-28T11:27:31.411Z,72.65
2023-01-28T11:30:03.076Z,72.37
2023-01-28T11:32:31.295Z,72.32
2023-01-28T11:35:00.373Z,72.15
2023-01-28T11:37:30.145Z,72.51
2023-01-28T11:40:05.868Z,72.96
2023-01-28T11:42:33.369Z,72.61
2023-01-28T11:45:00.827Z,72.40
2023-01-28T11:47:42.171Z,72.43
2023-01-28T11:50:23.981Z,72.23
2023-01-28T11:53:06.990Z,71.70
2023-01-28T11:55:53.680Z,72.70
2023-01-28T11:58:24.131Z,72.56
2023-01-28T12:01:02.460Z,72.37
2023-01-28T12:03:42.617Z,71.83
2023-01-28T12:06:23.859Z,72.17
2023-01-28T12:08:58.429Z,72.82
2023-01-28T12:11:45.281Z,72.52
2023-01-28T12:14:19.923Z,71.99
2023-01-28T12:16:54.673Z,72.22
2023-01-28T12:19:42.726Z,72.28
2023-01-28T12:22:24.031Z,72.51
2023-01-28T12:25:05.468Z,72.65
2023-01-28T12:27:41.494Z,72.63
2023-01-28T12:30:21.778Z,72.61
2023-01-28T12:33:00.758Z,72.48
2023-01-28T12:35:44.698Z,72.86
2023-01-28T12:38:16.897Z,72.23
2023-01-28T12:40:53.393Z,72.49
2023-01-28T12:43:24.961Z,72.35
2023-01-28T12:45:56.351Z,72.16
2023-01-28T12:48:28.520Z,72.02
2023-01-28T12:51:00.073Z,71.46
2023-01-28T12:53:30.354Z,71.36
2023-01-28T12:56:01.865Z,71.01
2023-01-28T12:58:38.394Z,69.98
2023-01-28T13:01:09.497Z,69.75
2023-01-28T13:03:41.427Z,69.61
2023-01-28T13:06:13.623Z,69.57
2023-01-28T13:08:41.108Z,69.29
2023-01-28T13:11:13.676Z,69.35
2023-01-28T13:13:43.065Z,69.99
2023-01-28T13:16:11.901Z,68.70
2023-01-28T13:18:45.206Z,68.38
2023-01-28T13:21:18.170Z,68.23
2023-01-28T13:23:46.901Z,68.07
2023-01-28T13:26:32.341Z,67.49
2023-01-28T13:29:19.022Z,68.06
2023-01-28T13:31:48.725Z,68.16
2023-01-28T13:34:32.870Z,67.53
2023-01-28T13:37:04.982Z,67.06
2023-01-28T13:39:35.586Z,66.77
2023-01-28T13:42:21.725Z,67.49
2023-01-28T13:44:49.318Z,67.32
2023-01-28T13:47:24.290Z,66.97
2023-01-28T13:49:56.976Z,66.75
2023-01-28T13:52:28.839Z,67.61
2023-01-28T13:54:58.743Z,67.09
2023-01-28T13:57:45.193Z,66.98
2023-01-28T14:00:21.481Z,66.60
2023-01-28T14:03:20.894Z,66.66
2023-01-28T14:06:02.817Z,66.32
2023-01-28T14:08:53.958Z,65.93
2023-01-28T14:11:49.564Z,66.63
2023-01-28T14:14:34.676Z,65.83
2023-01-28T14:17:05.087Z,65.51
2023-01-28T14:19:34.882Z,66.46
2023-01-28T14:22:07.928Z,67.10
2023-01-28T14:24:35.527Z,65.98
2023-01-28T14:27:07.057Z,65.58
2023-01-28T14:29:48.264Z,65.62
2023-01-28T14:32:17.610Z,65.63
2023-01-28T14:34:46.271Z,65.53
2023-01-28T14:37:15.336Z,65.65
2023-01-28T14:39:45.492Z,65.01
2023-01-28T14:42:17.883Z,66.28
2023-01-28T14:44:47.756Z,65.02
2023-01-28T14:47:46.237Z,64.71
2023-01-28T14:50:24.345Z,65.43
2023-01-28T14:53:07.833Z,65.49
2023-01-28T14:55:42.180Z,65.52
2023-01-28T14:58:15.252Z,65.46
2023-01-28T15:00:54.349Z,65.29
2023-01-28T15:03:25.389Z,64.67
2023-01-28T15:06:03.815Z,65.29
2023-01-28T15:08:32.468Z,65.25
2023-01-28T15:11:01.578Z,65.47
2023-01-28T15:13:30.850Z,65.35
2023-01-28T15:16:00.768Z,65.00
2023-01-28T15:18:32.224Z,65.23
2023-01-28T15:21:00.974Z,64.54
2023-01-28T15:23:31.104Z,64.51
2023-01-28T15:25:59.091Z,66.22
2023-01-28T15:28:29.421Z,64.28
2023-01-28T15:30:59.467Z,64.51
2023-01-28T15:33:27.154Z,64.59
2023-01-28T15:35:55.984Z,64.92
2023-01-28T15:38:24.449Z,65.08
2023-01-28T15:40:56.771Z,64.52
2023-01-28T15:43:26.550Z,65.80
2023-01-28T15:45:56.235Z,64.53
2023-01-28T15:48:27.020Z,66.30
2023-01-28T15:51:05.473Z,64.30
2023-01-28T15:53:35.997Z,64.58
2023-01-28T15:56:08.867Z,64.79
2023-01-28T15:58:41.347Z,64.81
2023-01-28T16:01:21.802Z,64.40
2023-01-28T16:04:02.624Z,64.41
2023-01-28T16:06:36.056Z,64.87
2023-01-28T16:09:05.380Z,64.32
2023-01-28T16:11:35.581Z,63.58
2023-01-28T16:14:03.198Z,64.17
2023-01-28T16:16:32.681Z,64.99
2023-01-28T16:19:02.472Z,64.97
2023-01-28T16:21:32.108Z,65.28
2023-01-28T16:24:02.134Z,64.59
2023-01-28T16:26:31.392Z,64.39
2023-01-28T16:28:59.244Z,65.42
2023-01-28T16:31:27.090Z,65.30
2023-01-28T16:33:54.886Z,65.93
2023-01-28T16:36:23.942Z,65.54
2023-01-28T16:38:51.570Z,64.93
2023-01-28T16:41:24.788Z,65.26
2023-01-28T16:43:52.464Z,65.19
2023-01-28T16:46:20.392Z,65.67
2023-01-28T16:48:48.226Z,66.00
2023-01-28T16:51:17.931Z,65.67
2023-01-28T16:53:49.128Z,65.85
2023-01-28T16:56:35.827Z,66.42
2023-01-28T16:59:05.362Z,65.79
2023-01-28T17:01:32.918Z,65.78
2023-01-28T17:04:01.008Z,65.29
2023-01-28T17:06:28.611Z,64.57
2023-01-28T17:08:57.762Z,64.80
2023-01-28T17:11:29.793Z,65.08
2023-01-28T17:13:57.377Z,65.32
2023-01-28T17:16:25.356Z,66.04
2023-01-28T17:18:53.082Z,67.48
2023-01-28T17:21:22.632Z,65.49
2023-01-28T17:23:50.775Z,66.41
2023-01-28T17:26:19.903Z,66.63
2023-01-28T17:28:52.707Z,65.75
2023-01-28T17:31:20.541Z,65.17
2023-01-28T17:33:48.230Z,65.90
2023-01-28T17:36:15.711Z,64.78
2023-01-28T17:38:45.277Z,65.32
2023-01-28T17:41:13.623Z,65.36
2023-01-28T17:43:42.608Z,66.02
2023-01-28T17:46:14.491Z,66.37
2023-01-28T17:48:43.944Z,65.70
2023-01-28T17:51:11.541Z,65.62
2023-01-28T17:53:39.170Z,66.30
2023-01-28T17:56:07.439Z,66.02
2023-01-28T17:58:35.013Z,65.72
2023-01-28T18:01:11.129Z,65.88
2023-01-28T18:03:38.611Z,66.00
2023-01-28T18:06:07.215Z,66.71
2023-01-28T18:08:35.704Z,67.48
2023-01-28T18:11:03.664Z,67.07
2023-01-28T18:13:31.347Z,65.87
2023-01-28T18:15:58.814Z,67.83
2023-01-28T18:18:27.613Z,68.03
2023-01-28T18:20:58.923Z,67.82
2023-01-28T18:23:26.471Z,68.67
2023-01-28T18:25:56.849Z,68.66
2023-01-28T18:28:24.661Z,68.28
2023-01-28T18:30:53.148Z,69.36
2023-01-28T18:33:21.393Z,68.81
2023-01-28T18:35:50.454Z,68.74
2023-01-28T18:38:18.473Z,68.81
2023-01-28T18:40:46.488Z,69.19
2023-01-28T18:43:15.030Z,68.59
2023-01-28T18:45:44.448Z,69.87
2023-01-28T18:48:12.173Z,70.35
2023-01-28T18:50:39.617Z,69.97
2023-01-28T18:53:08.465Z,69.51
2023-01-28T18:55:35.945Z,69.88
2023-01-28T18:58:03.365Z,69.97
2023-01-28T19:00:30.848Z,70.40
2023-01-28T19:02:58.615Z,70.15
2023-01-28T19:05:26.069Z,70.12
2023-01-28T19:07:53.535Z,70.80
2023-01-28T19:10:23.837Z,69.48
2023-01-28T19:12:51.347Z,69.29
2023-01-28T19:15:18.860Z,68.52
2023-01-28T19:17:46.652Z,69.12
2023-01-28T19:20:14.695Z,69.77
2023-01-28T19:22:42.432Z,68.92
2023-01-28T19:25:10.718Z,68.94
2023-01-28T19:27:39.651Z,69.22
2023-01-28T19:30:08.342Z,68.94
2023-01-28T19:32:35.983Z,68.66
2023-01-28T19:35:03.653Z,68.15
2023-01-28T19:37:31.311Z,67.49
2023-01-28T19:39:59.088Z,66.94
2023-01-28T19:42:26.639Z,67.98
2023-01-28T19:44:55.583Z,68.34
2023-01-28T19:47:23.189Z,68.06
2023-01-28T19:49:51.079Z,67.54
2023-01-28T19:52:18.686Z,68.26
2023-01-28T19:54:48.026Z,67.99
2023-01-28T19:57:15.647Z,67.65
2023-01-28T19:59:44.038Z,67.60
2023-01-28T20:02:12.904Z,67.98
2023-01-28T20:04:51.383Z,67.84
2023-01-28T20:07:26.760Z,67.73
2023-01-28T20:09:54.387Z,67.97
2023-01-28T20:12:21.979Z,67.13
2023-01-28T20:14:49.544Z,67.47
2023-01-28T20:17:18.452Z,67.42
2023-01-28T20:19:46.109Z,67.13
2023-01-28T20:22:22.706Z,67.08
2023-01-28T20:24:57.005Z,67.23
2023-01-28T20:27:25.064Z,68.15
2023-01-28T20:29:53.005Z,67.96
2023-01-28T20:32:23.188Z,67.58
2023-01-28T20:34:51.839Z,67.68
2023-01-28T20:37:20.017Z,67.66
2023-01-28T20:39:49.548Z,66.69
2023-01-28T20:42:17.062Z,67.14
2023-01-28T20:44:44.730Z,67.01
2023-01-28T20:47:12.298Z,66.29
2023-01-28T20:49:41.423Z,66.35
2023-01-28T20:52:09.133Z,66.48
2023-01-28T20:54:36.839Z,66.73
2023-01-28T20:57:07.396Z,67.36
2023-01-28T20:59:34.949Z,67.20
2023-01-28T21:02:02.625Z,67.99
2023-01-28T21:04:30.209Z,67.63
2023-01-28T21:06:59.176Z,67.26
2023-01-28T21:09:27.818Z,67.11
2023-01-28T21:11:55.396Z,66.90
2023-01-28T21:14:23.196Z,67.89
2023-01-28T21:16:53.020Z,67.36
2023-01-28T21:19:20.804Z,67.51
2023-01-28T21:21:48.421Z,67.82
2023-01-28T21:24:17.531Z,67.43
2023-01-28T21:26:45.139Z,67.82
2023-01-28T21:29:15.295Z,67.32
2023-01-28T21:31:44.232Z,67.73
2023-01-28T21:34:11.848Z,67.84
2023-01-28T21:36:42.195Z,67.84
2023-01-28T21:39:10.686Z,68.19
2023-01-28T21:41:39.986Z,67.46
2023-01-28T21:44:07.577Z,67.83
2023-01-28T21:46:35.858Z,66.84
2023-01-28T21:49:05.283Z,67.51
2023-01-28T21:51:46.058Z,66.48
2023-01-28T21:54:15.197Z,67.77
2023-01-28T21:56:45.101Z,69.43
2023-01-28T21:59:32.494Z,69.37
2023-01-28T22:02:01.558Z,68.18
2023-01-28T22:04:31.345Z,67.63
2023-01-28T22:06:59.395Z,67.48
2023-01-28T22:09:29.064Z,67.58
2023-01-28T22:11:58.003Z,68.06
2023-01-28T22:14:25.551Z,68.06
2023-01-28T22:16:53.225Z,67.79
2023-01-28T22:19:20.765Z,68.60
2023-01-28T22:21:49.195Z,68.41
2023-01-28T22:24:18.018Z,68.96
2023-01-28T22:26:46.575Z,68.55
2023-01-28T22:29:16.596Z,68.66
2023-01-28T22:31:46.085Z,68.65
2023-01-28T22:34:14.088Z,67.87
2023-01-28T22:36:41.796Z,69.42
2023-01-28T22:39:13.018Z,69.60
2023-01-28T22:41:41.397Z,68.83
2023-01-28T22:44:09.193Z,68.29
2023-01-28T22:46:38.252Z,68.17
2023-01-28T22:49:06.222Z,68.04
2023-01-28T22:51:35.696Z,68.62
2023-01-28T22:54:03.724Z,69.59
2023-01-28T22:56:31.462Z,68.15
2023-01-28T22:59:01.135Z,68.11
2023-01-28T23:01:29.668Z,68.11
2023-01-28T23:03:58.911Z,69.63
2023-01-28T23:06:28.446Z,69.03
2023-01-28T23:08:56.750Z,68.94
2023-01-28T23:11:28.811Z,69.12
2023-01-28T23:14:30.008Z,68.44
2023-01-28T23:17:15.274Z,67.52
2023-01-28T23:20:01.852Z,68.04
2023-01-28T23:22:50.292Z,68.33
2023-01-28T23:25:18.819Z,67.82
2023-01-28T23:27:46.690Z,68.26
2023-01-28T23:30:15.706Z,67.88
2023-01-28T23:32:46.081Z,68.02
2023-01-28T23:35:15.154Z,67.63
2023-01-28T23:37:42.783Z,69.02
2023-01-28T23:40:15.566Z,68.44
2023-01-28T23:42:44.689Z,68.45
2023-01-28T23:45:12.344Z,68.72
2023-01-28T23:47:39.927Z,67.58
2023-01-28T23:50:08.159Z,68.10
2023-01-28T23:52:37.185Z,67.86
2023-01-28T23:55:05.697Z,67.72
2023-01-28T23:57:33.471Z,68.70
